createdAt,value
2023-03-18T00:00:46.350Z,63.50
2023-03-18T00:01:48.183Z,63.44
2023-03-18T00:02:52.811Z,63.96
2023-03-18T00:03:54.669Z,63.66
2023-03-18T00:04:57.704Z,63.93
2023-03-18T00:06:04.753Z,63.85
2023-03-18T00:07:08.163Z,64.05
2023-03-18T00:08:10.689Z,63.77
2023-03-18T00:09:14.422Z,64.22
2023-03-18T00:10:16.913Z,64.45
2023-03-18T00:11:21.346Z,64.35
2023-03-18T00:12:23.589Z,64.11
2023-03-18T00:13:27.327Z,64.37
2023-03-18T00:14:29.925Z,64.20
2023-03-18T00:15:33.269Z,64.07
2023-03-18T00:16:36.918Z,63.86
2023-03-18T00:17:41.177Z,64.20
2023-03-18T00:18:43.280Z,64.21
2023-03-18T00:19:46.070Z,64.62
2023-03-18T00:20:47.997Z,64.36
2023-03-18T00:21:51.264Z,64.35
2023-03-18T00:22:53.044Z,64.37
2023-03-18T00:23:56.986Z,64.49
2023-03-18T00:24:58.919Z,64.46
2023-03-18T00:26:02.436Z,64.81
2023-03-18T00:27:04.593Z,64.74
2023-03-18T00:28:08.077Z,64.57
2023-03-18T00:29:10.543Z,64.70
2023-03-18T00:30:14.394Z,64.35
2023-03-18T00:31:16.319Z,64.40
2023-03-18T00:32:21.370Z,64.71
2023-03-18T00:33:23.552Z,64.42
2023-03-18T00:34:26.946Z,64.62
2023-03-18T00:35:30.514Z,64.83
2023-03-18T00:36:33.414Z,64.79
2023-03-18T00:37:37.508Z,64.65
2023-03-18T00:38:41.155Z,64.40
2023-03-18T00:39:44.310Z,64.85
2023-03-18T00:40:54.272Z,64.65
2023-03-18T00:41:56.743Z,65.18
2023-03-18T00:43:07.879Z,64.51
2023-03-18T00:44:10.238Z,64.69
2023-03-18T00:45:13.520Z,64.56
2023-03-18T00:46:19.078Z,64.71
2023-03-18T00:47:23.464Z,64.68
2023-03-18T00:48:43.258Z,64.80
2023-03-18T00:49:46.028Z,65.09
2023-03-18T00:50:48.130Z,64.74
2023-03-18T00:51:52.009Z,65.35
2023-03-18T00:52:54.965Z,65.18
2023-03-18T00:53:59.458Z,65.14
2023-03-18T00:55:01.963Z,65.25
2023-03-18T00:56:05.841Z,65.08
2023-03-18T00:57:08.329Z,65.35
2023-03-18T00:58:12.766Z,65.24
2023-03-18T00:59:15.074Z,65.55
2023-03-18T01:00:20.044Z,65.21
2023-03-18T01:01:23.005Z,65.07
2023-03-18T01:02:29.530Z,65.31
2023-03-18T01:03:32.178Z,65.46
2023-03-18T01:04:35.675Z,65.38
2023-03-18T01:05:38.236Z,65.70
2023-03-18T01:06:41.428Z,65.33
2023-03-18T01:07:44.876Z,65.45
2023-03-18T01:08:48.245Z,65.42
2023-03-18T01:09:50.072Z,65.48
2023-03-18T01:10:54.351Z,65.86
2023-03-18T01:11:56.204Z,65.61
2023-03-18T01:12:59.437Z,65.55
2023-03-18T01:14:03.563Z,65.50
2023-03-18T01:15:07.831Z,65.48
2023-03-18T01:16:10.416Z,65.78
2023-03-18T01:17:13.947Z,65.17
2023-03-18T01:18:18.630Z,65.51
2023-03-18T01:19:20.905Z,65.41
2023-03-18T01:20:25.675Z,65.64
2023-03-18T01:21:29.662Z,65.56
2023-03-18T01:22:35.919Z,65.21
2023-03-18T01:23:38.513Z,65.43
2023-03-18T01:24:42.026Z,65.30
2023-03-18T01:25:45.251Z,65.47
2023-03-18T01:26:52.517Z,65.54
2023-03-18T01:27:55.619Z,65.65
2023-03-18T01:28:59.388Z,65.56
2023-03-18T01:30:02.466Z,65.50
2023-03-18T01:31:05.971Z,65.67
2023-03-18T01:32:08.091Z,65.51
2023-03-18T01:33:10.940Z,65.70
2023-03-18T01:34:14.226Z,65.85
2023-03-18T01:35:23.038Z,65.70
2023-03-18T01:36:25.591Z,65.55
2023-03-18T01:37:40.470Z,65.84
2023-03-18T01:38:46.730Z,65.59
2023-03-18T01:39:50.905Z,66.10
2023-03-18T01:40:57.862Z,66.00
2023-03-18T01:42:01.040Z,65.66
2023-03-18T01:43:14.022Z,65.57
2023-03-18T01:44:19.171Z,65.66
2023-03-18T01:45:25.571Z,65.82
2023-03-18T01:46:37.414Z,65.17
2023-03-18T01:47:40.522Z,65.46
2023-03-18T01:48:43.735Z,65.48
2023-03-18T01:49:49.040Z,65.63
2023-03-18T01:50:54.979Z,65.66
2023-03-18T01:51:59.920Z,65.55
2023-03-18T01:53:04.545Z,65.78
2023-03-18T01:54:07.537Z,65.99
2023-03-18T01:55:13.970Z,65.80
2023-03-18T01:56:16.723Z,65.85
2023-03-18T01:57:19.968Z,65.83
2023-03-18T01:58:25.344Z,66.04
2023-03-18T01:59:29.686Z,65.96
2023-03-18T02:00:32.473Z,65.58
2023-03-18T02:01:40.079Z,65.53
2023-03-18T02:02:44.550Z,65.59
2023-03-18T02:03:49.321Z,65.55
2023-03-18T02:04:54.993Z,66.00
2023-03-18T02:05:58.295Z,66.15
2023-03-18T02:07:01.330Z,65.65
2023-03-18T02:08:04.266Z,65.95
2023-03-18T02:09:07.222Z,65.75
2023-03-18T02:10:14.056Z,66.39
2023-03-18T02:11:16.223Z,66.44
2023-03-18T02:12:23.214Z,65.87
2023-03-18T02:13:26.626Z,66.10
2023-03-18T02:14:29.941Z,66.13
2023-03-18T02:15:33.841Z,66.35
2023-03-18T02:16:41.293Z,66.46
2023-03-18T02:17:46.430Z,66.19
2023-03-18T02:18:52.221Z,66.81
2023-03-18T02:20:04.693Z,66.60
2023-03-18T02:21:19.177Z,66.86
2023-03-18T02:22:28.778Z,66.50
2023-03-18T02:23:42.645Z,66.67
2023-03-18T02:24:49.685Z,66.33
2023-03-18T02:26:00.837Z,66.76
2023-03-18T02:27:05.074Z,66.74
2023-03-18T02:28:20.401Z,66.52
2023-03-18T02:29:23.481Z,66.59
2023-03-18T02:30:35.475Z,66.51
2023-03-18T02:31:41.715Z,66.90
2023-03-18T02:32:46.958Z,67.06
2023-03-18T02:33:49.172Z,66.60
2023-03-18T02:34:52.472Z,67.19
2023-03-18T02:35:58.038Z,67.00
2023-03-18T02:37:01.454Z,67.07
2023-03-18T02:38:04.754Z,67.23
2023-03-18T02:39:08.325Z,67.26
2023-03-18T02:40:16.171Z,66.68
2023-03-18T02:41:21.841Z,66.76
2023-03-18T02:42:28.600Z,67.27
2023-03-18T02:43:34.469Z,67.21
2023-03-18T02:44:42.360Z,67.11
2023-03-18T02:46:29.073Z,67.40
2023-03-18T02:47:31.712Z,67.12
2023-03-18T02:48:37.567Z,66.82
2023-03-18T02:49:40.030Z,66.67
2023-03-18T02:50:43.017Z,66.74
2023-03-18T02:51:45.199Z,66.70
2023-03-18T02:52:47.986Z,67.25
2023-03-18T02:53:51.049Z,67.09
2023-03-18T02:54:58.387Z,66.73
2023-03-18T02:56:02.808Z,67.34
2023-03-18T02:57:06.284Z,67.10
2023-03-18T02:58:09.239Z,66.23
2023-03-18T02:59:14.574Z,67.02
2023-03-18T03:00:17.087Z,67.31
2023-03-18T03:01:20.633Z,67.21
2023-03-18T03:02:24.372Z,67.04
2023-03-18T03:03:27.646Z,66.91
2023-03-18T03:04:30.717Z,66.59
2023-03-18T03:05:34.220Z,66.74
2023-03-18T03:06:37.734Z,67.25
2023-03-18T03:07:39.935Z,67.01
2023-03-18T03:08:44.788Z,67.33
2023-03-18T03:09:46.929Z,66.98
2023-03-18T03:10:51.017Z,66.51
2023-03-18T03:11:52.923Z,66.44
2023-03-18T03:12:59.182Z,67.30
2023-03-18T03:14:01.408Z,66.49
2023-03-18T03:15:09.939Z,66.92
2023-03-18T03:16:17.957Z,66.90
2023-03-18T03:17:20.764Z,67.15
2023-03-18T03:18:23.011Z,66.99
2023-03-18T03:19:25.999Z,67.11
2023-03-18T03:20:28.508Z,66.78
2023-03-18T03:21:32.356Z,67.18
2023-03-18T03:22:34.577Z,67.13
2023-03-18T03:23:38.359Z,66.74
2023-03-18T03:24:41.285Z,66.73
2023-03-18T03:25:45.594Z,67.02
2023-03-18T03:26:47.471Z,67.46
2023-03-18T03:27:50.996Z,67.56
2023-03-18T03:28:53.390Z,67.50
2023-03-18T03:29:57.241Z,67.74
2023-03-18T03:31:00.759Z,66.98
2023-03-18T03:32:03.948Z,66.93
2023-03-18T03:33:06.788Z,67.33
2023-03-18T03:34:10.753Z,67.40
2023-03-18T03:35:14.790Z,67.63
2023-03-18T03:36:17.978Z,67.00
2023-03-18T03:37:19.731Z,66.94
2023-03-18T03:38:24.360Z,66.79
2023-03-18T03:39:30.001Z,67.10
2023-03-18T03:40:33.267Z,67.35
2023-03-18T03:41:54.666Z,67.68
2023-03-18T03:42:56.695Z,67.49
2023-03-18T03:43:59.645Z,67.39
2023-03-18T03:45:01.648Z,67.56
2023-03-18T03:46:06.438Z,67.69
2023-03-18T03:47:08.704Z,67.69
2023-03-18T03:48:12.674Z,67.52
2023-03-18T03:49:14.935Z,67.63
2023-03-18T03:50:19.892Z,67.61
2023-03-18T03:51:22.273Z,67.07
2023-03-18T03:52:26.521Z,67.05
2023-03-18T03:53:28.951Z,67.57
2023-03-18T03:54:31.967Z,67.38
2023-03-18T03:55:35.629Z,67.20
2023-03-18T03:56:38.562Z,67.90
2023-03-18T03:57:41.832Z,67.94
2023-03-18T03:58:45.747Z,67.45
2023-03-18T03:59:47.640Z,67.48
2023-03-18T04:00:53.972Z,67.63
2023-03-18T04:01:57.573Z,67.36
2023-03-18T04:03:00.855Z,68.02
2023-03-18T04:04:04.082Z,67.55
2023-03-18T04:05:10.216Z,67.49
2023-03-18T04:06:12.352Z,67.88
2023-03-18T04:07:22.236Z,67.39
2023-03-18T04:08:25.419Z,67.92
2023-03-18T04:09:27.655Z,68.13
2023-03-18T04:10:31.131Z,67.55
2023-03-18T04:11:34.423Z,67.49
2023-03-18T04:12:38.073Z,67.59
2023-03-18T04:13:39.881Z,67.53
2023-03-18T04:14:43.295Z,67.89
2023-03-18T04:15:47.488Z,68.07
2023-03-18T04:16:56.034Z,68.64
2023-03-18T04:18:04.755Z,68.18
2023-03-18T04:19:07.154Z,68.35
2023-03-18T04:20:11.451Z,67.91
2023-03-18T04:21:14.817Z,68.83
2023-03-18T04:22:22.964Z,68.33
2023-03-18T04:23:26.618Z,68.07
2023-03-18T04:24:28.710Z,68.44
2023-03-18T04:25:31.778Z,68.33
2023-03-18T04:26:33.910Z,68.22
2023-03-18T04:27:40.673Z,68.81
2023-03-18T04:28:45.234Z,69.19
2023-03-18T04:29:51.334Z,69.44
2023-03-18T04:30:54.059Z,69.11
2023-03-18T04:31:56.908Z,69.58
2023-03-18T04:33:03.368Z,69.27
2023-03-18T04:34:06.688Z,68.99
2023-03-18T04:35:11.169Z,69.15
2023-03-18T04:36:13.104Z,68.34
2023-03-18T04:37:19.839Z,68.73
2023-03-18T04:38:24.635Z,68.65
2023-03-18T04:39:28.439Z,68.31
2023-03-18T04:40:31.146Z,68.15
2023-03-18T04:41:34.111Z,68.07
2023-03-18T04:42:38.958Z,68.66
2023-03-18T04:43:44.702Z,68.42
2023-03-18T04:44:46.620Z,68.58
2023-03-18T04:45:50.843Z,68.53
2023-03-18T04:46:53.717Z,68.93
2023-03-18T04:47:58.429Z,69.21
2023-03-18T04:49:03.510Z,69.46
2023-03-18T04:50:10.939Z,69.83
2023-03-18T04:51:13.587Z,69.23
2023-03-18T04:52:16.623Z,69.28
2023-03-18T04:53:19.842Z,69.16
2023-03-18T04:54:23.455Z,69.15
2023-03-18T04:55:28.579Z,69.17
2023-03-18T04:56:33.244Z,69.65
2023-03-18T04:57:36.317Z,69.45
2023-03-18T04:58:39.301Z,69.26
2023-03-18T04:59:46.067Z,69.22
2023-03-18T05:00:50.071Z,69.67
2023-03-18T05:01:59.682Z,69.08
2023-03-18T05:03:03.676Z,68.50
2023-03-18T05:04:06.952Z,69.37
2023-03-18T05:05:18.676Z,69.13
2023-03-18T05:06:26.839Z,69.18
2023-03-18T05:07:49.869Z,69.42
2023-03-18T05:08:54.345Z,69.41
2023-03-18T05:09:58.833Z,69.08
2023-03-18T05:11:00.769Z,69.44
2023-03-18T05:12:04.425Z,69.53
2023-03-18T05:13:10.875Z,69.80
2023-03-18T05:14:13.748Z,69.51
2023-03-18T05:15:20.567Z,69.81
2023-03-18T05:16:28.593Z,69.49
2023-03-18T05:17:31.397Z,69.74
2023-03-18T05:18:36.489Z,70.20
2023-03-18T05:19:42.370Z,70.26
2023-03-18T05:20:48.860Z,69.56
2023-03-18T05:21:54.058Z,70.11
2023-03-18T05:22:56.101Z,70.04
2023-03-18T05:24:28.632Z,70.26
2023-03-18T05:25:31.724Z,70.02
2023-03-18T05:26:36.083Z,69.73
2023-03-18T05:27:38.027Z,69.57
2023-03-18T05:28:47.724Z,69.89
2023-03-18T05:30:01.203Z,69.93
2023-03-18T05:31:15.177Z,70.37
2023-03-18T05:32:19.402Z,70.30
2023-03-18T05:33:28.775Z,70.96
2023-03-18T05:34:31.883Z,70.47
2023-03-18T05:35:37.476Z,70.73
2023-03-18T05:36:39.539Z,71.54
2023-03-18T05:37:44.333Z,71.43
2023-03-18T05:38:47.539Z,71.27
2023-03-18T05:39:50.783Z,70.84
2023-03-18T05:40:55.387Z,71.00
2023-03-18T05:42:12.526Z,71.05
2023-03-18T05:43:14.790Z,70.94
2023-03-18T05:44:24.566Z,70.87
2023-03-18T05:45:28.207Z,71.21
2023-03-18T05:46:32.164Z,71.06
2023-03-18T05:47:46.976Z,70.84
2023-03-18T05:48:50.888Z,70.39
2023-03-18T05:49:52.993Z,69.92
2023-03-18T05:51:00.030Z,70.30
2023-03-18T05:52:05.885Z,69.92
2023-03-18T05:53:16.687Z,70.14
2023-03-18T05:54:20.421Z,71.19
2023-03-18T05:55:23.858Z,71.39
2023-03-18T05:56:26.822Z,71.76
2023-03-18T05:57:32.854Z,71.56
2023-03-18T05:58:40.300Z,70.55
2023-03-18T06:00:09.347Z,70.08
2023-03-18T06:01:26.016Z,69.78
2023-03-18T06:02:28.275Z,69.50
2023-03-18T06:03:31.947Z,69.23
2023-03-18T06:04:34.150Z,69.13
2023-03-18T06:05:37.115Z,68.87
2023-03-18T06:06:41.026Z,68.80
2023-03-18T06:07:45.425Z,68.48
2023-03-18T06:08:47.270Z,68.44
2023-03-18T06:09:50.279Z,68.34
2023-03-18T06:10:53.040Z,68.04
2023-03-18T06:11:57.218Z,67.58
2023-03-18T06:12:59.213Z,67.60
2023-03-18T06:14:03.295Z,67.25
2023-03-18T06:15:07.587Z,67.52
2023-03-18T06:16:11.025Z,66.73
2023-03-18T06:17:15.070Z,67.23
2023-03-18T06:18:18.697Z,66.98
2023-03-18T06:19:20.666Z,66.71
2023-03-18T06:20:24.346Z,66.20
2023-03-18T06:21:27.142Z,66.38
2023-03-18T06:22:31.700Z,66.30
2023-03-18T06:23:33.798Z,65.64
2023-03-18T06:24:37.175Z,65.25
2023-03-18T06:25:40.395Z,65.28
2023-03-18T06:26:43.726Z,64.85
2023-03-18T06:27:47.950Z,64.59
2023-03-18T06:28:52.348Z,64.10
2023-03-18T06:29:54.948Z,64.09
2023-03-18T06:30:58.441Z,64.01
2023-03-18T06:32:01.602Z,64.03
2023-03-18T06:33:05.039Z,63.96
2023-03-18T06:34:07.025Z,63.89
2023-03-18T06:35:13.801Z,63.40
2023-03-18T06:36:16.775Z,63.12
2023-03-18T06:37:25.617Z,62.67
2023-03-18T06:38:29.078Z,62.58
2023-03-18T06:39:34.710Z,62.19
2023-03-18T06:40:40.373Z,62.48
2023-03-18T06:41:44.847Z,62.19
2023-03-18T06:43:06.009Z,61.59
2023-03-18T06:44:13.509Z,61.83
2023-03-18T06:45:17.187Z,61.30
2023-03-18T06:46:28.966Z,61.06
2023-03-18T06:47:31.950Z,61.78
2023-03-18T06:48:35.164Z,61.39
2023-03-18T06:49:39.356Z,60.38
2023-03-18T06:50:46.914Z,60.54
2023-03-18T06:51:56.481Z,60.19
2023-03-18T06:52:59.127Z,60.06
2023-03-18T06:54:07.264Z,59.88
2023-03-18T06:55:10.650Z,59.57
2023-03-18T06:56:16.671Z,59.49
2023-03-18T06:57:41.555Z,59.37
2023-03-18T06:58:45.944Z,59.37
2023-03-18T06:59:48.895Z,60.24
2023-03-18T07:00:50.936Z,60.17
2023-03-18T07:01:59.553Z,59.54
2023-03-18T07:03:01.668Z,60.04
2023-03-18T07:04:06.800Z,59.44
2023-03-18T07:05:09.837Z,59.53
2023-03-18T07:06:14.044Z,59.66
2023-03-18T07:07:16.614Z,59.66
2023-03-18T07:08:19.686Z,59.33
2023-03-18T07:09:23.435Z,58.93
2023-03-18T07:10:31.317Z,58.67
2023-03-18T07:11:46.093Z,58.22
2023-03-18T07:12:52.768Z,57.69
2023-03-18T07:13:54.809Z,58.35
2023-03-18T07:15:08.839Z,58.06
2023-03-18T07:16:11.988Z,57.25
2023-03-18T07:17:15.435Z,57.60
2023-03-18T07:18:18.732Z,57.14
2023-03-18T07:19:21.839Z,55.97
2023-03-18T07:20:24.893Z,57.20
2023-03-18T07:21:27.722Z,56.45
2023-03-18T07:22:30.689Z,56.32
2023-03-18T07:23:33.030Z,55.93
2023-03-18T07:24:37.498Z,56.05
2023-03-18T07:25:39.461Z,55.63
2023-03-18T07:26:42.482Z,55.48
2023-03-18T07:27:45.619Z,54.90
2023-03-18T07:28:48.523Z,55.06
2023-03-18T07:29:50.664Z,54.17
2023-03-18T07:30:54.343Z,54.41
2023-03-18T07:31:57.389Z,54.00
2023-03-18T07:33:01.449Z,53.83
2023-03-18T07:34:05.114Z,53.83
2023-03-18T07:35:10.786Z,53.70
2023-03-18T07:36:14.192Z,53.47
2023-03-18T07:37:17.021Z,53.16
2023-03-18T07:38:20.189Z,52.15
2023-03-18T07:39:22.631Z,52.87
2023-03-18T07:40:27.013Z,52.56
2023-03-18T07:41:28.894Z,52.48
2023-03-18T07:42:31.803Z,52.07
2023-03-18T07:43:36.082Z,51.86
2023-03-18T07:44:38.884Z,51.16
2023-03-18T07:45:40.811Z,50.77
2023-03-18T07:46:44.197Z,50.80
2023-03-18T07:47:47.299Z,51.41
2023-03-18T07:48:50.517Z,51.40
2023-03-18T07:49:52.668Z,51.55
2023-03-18T07:50:55.570Z,51.22
2023-03-18T07:51:58.849Z,51.05
2023-03-18T07:53:02.311Z,50.67
2023-03-18T07:54:04.878Z,50.41
2023-03-18T07:55:09.170Z,49.52
2023-03-18T07:56:12.644Z,50.25
2023-03-18T07:57:15.510Z,50.45
2023-03-18T07:58:17.392Z,50.26
2023-03-18T07:59:20.899Z,50.31
2023-03-18T08:00:23.207Z,50.30
2023-03-18T08:01:26.384Z,50.15
2023-03-18T08:02:28.807Z,50.33
2023-03-18T08:03:31.916Z,49.82
2023-03-18T08:04:34.763Z,49.43
2023-03-18T08:05:39.033Z,49.69
2023-03-18T08:06:41.208Z,49.59
2023-03-18T08:07:44.433Z,48.79
2023-03-18T08:08:46.706Z,48.55
2023-03-18T08:09:50.617Z,48.20
2023-03-18T08:10:56.983Z,48.11
2023-03-18T08:12:01.306Z,47.91
2023-03-18T08:13:03.981Z,47.66
2023-03-18T08:14:07.284Z,47.98
2023-03-18T08:15:11.496Z,46.82
2023-03-18T08:16:15.572Z,46.87
2023-03-18T08:17:17.793Z,47.06
2023-03-18T08:18:20.735Z,47.39
2023-03-18T08:19:23.709Z,46.86
2023-03-18T08:20:26.622Z,47.02
2023-03-18T08:21:30.779Z,47.09
2023-03-18T08:22:32.876Z,47.00
2023-03-18T08:23:35.829Z,47.39
2023-03-18T08:24:38.797Z,46.03
2023-03-18T08:25:42.201Z,46.91
2023-03-18T08:26:44.300Z,46.72
2023-03-18T08:27:48.754Z,46.97
2023-03-18T08:28:50.632Z,46.39
2023-03-18T08:29:53.718Z,47.33
2023-03-18T08:30:59.879Z,45.80
2023-03-18T08:32:02.495Z,46.35
2023-03-18T08:33:08.521Z,46.33
2023-03-18T08:34:11.844Z,45.53
2023-03-18T08:35:14.477Z,45.64
2023-03-18T08:36:17.635Z,46.25
2023-03-18T08:37:20.267Z,46.24
2023-03-18T08:38:23.891Z,46.46
2023-03-18T08:39:27.233Z,45.52
2023-03-18T08:40:30.696Z,44.86
2023-03-18T08:41:33.677Z,44.86
2023-03-18T08:42:37.357Z,44.06
2023-03-18T08:43:41.435Z,44.94
2023-03-18T08:44:44.637Z,44.82
2023-03-18T08:45:47.193Z,45.23
2023-03-18T08:46:50.614Z,45.52
2023-03-18T08:47:53.791Z,43.92
2023-03-18T08:48:57.790Z,44.45
2023-03-18T08:50:00.495Z,44.06
2023-03-18T08:51:05.572Z,44.21
2023-03-18T08:52:08.782Z,44.01
2023-03-18T08:53:11.476Z,43.65
2023-03-18T08:54:14.855Z,43.92
2023-03-18T08:55:17.096Z,43.67
2023-03-18T08:56:20.180Z,42.59
2023-03-18T08:57:22.651Z,43.02
2023-03-18T08:58:27.658Z,43.35
2023-03-18T08:59:31.187Z,42.96
2023-03-18T09:00:35.243Z,42.84
2023-03-18T09:01:37.438Z,42.26
2023-03-18T09:02:43.296Z,41.61
2023-03-18T09:03:45.727Z,40.82
2023-03-18T09:04:49.639Z,41.69
2023-03-18T09:05:55.770Z,40.96
2023-03-18T09:07:00.925Z,40.44
2023-03-18T09:08:04.019Z,40.10
2023-03-18T09:09:09.690Z,41.19
2023-03-18T09:10:13.242Z,40.11
2023-03-18T09:11:17.870Z,39.08
2023-03-18T09:12:20.511Z,39.17
2023-03-18T09:13:24.495Z,39.18
2023-03-18T09:14:28.156Z,39.62
2023-03-18T09:15:35.393Z,39.90
2023-03-18T09:16:38.490Z,39.65
2023-03-18T09:17:56.432Z,39.30
2023-03-18T09:19:05.160Z,39.05
2023-03-18T09:20:08.807Z,39.01
2023-03-18T09:21:12.268Z,38.97
2023-03-18T09:22:18.280Z,39.26
2023-03-18T09:23:20.821Z,39.24
2023-03-18T09:24:24.062Z,39.21
2023-03-18T09:25:26.993Z,39.02
2023-03-18T09:26:29.928Z,38.61
2023-03-18T09:27:32.700Z,38.08
2023-03-18T09:28:37.612Z,37.53
2023-03-18T09:29:44.372Z,38.02
2023-03-18T09:30:49.139Z,37.77
2023-03-18T09:31:57.865Z,37.27
2023-03-18T09:33:01.924Z,38.59
2023-03-18T09:34:04.177Z,37.64
2023-03-18T09:35:13.211Z,37.47
2023-03-18T09:36:15.650Z,37.74
2023-03-18T09:37:19.790Z,37.86
2023-03-18T09:38:23.880Z,37.12
2023-03-18T09:39:27.630Z,36.75
2023-03-18T09:40:34.188Z,37.52
2023-03-18T09:41:44.787Z,37.87
2023-03-18T09:42:59.118Z,37.10
2023-03-18T09:44:13.762Z,37.15
2023-03-18T09:45:20.934Z,35.63
2023-03-18T09:46:35.177Z,36.28
2023-03-18T09:47:56.923Z,37.07
2023-03-18T09:49:33.133Z,35.38
2023-03-18T09:50:39.887Z,36.15
2023-03-18T09:51:56.115Z,36.65
2023-03-18T09:53:20.117Z,36.76
2023-03-18T09:54:30.213Z,36.57
2023-03-18T09:57:28.644Z,37.13
2023-03-18T09:58:41.833Z,37.38
2023-03-18T09:59:47.700Z,36.70
2023-03-18T10:00:53.068Z,37.00
2023-03-18T10:01:58.769Z,37.25
2023-03-18T10:03:43.463Z,37.83
2023-03-18T10:04:49.664Z,36.42
2023-03-18T10:05:54.279Z,37.64
2023-03-18T10:07:00.333Z,37.26
2023-03-18T10:08:06.116Z,36.68
2023-03-18T10:09:17.278Z,37.15
2023-03-18T10:10:24.452Z,36.83
2023-03-18T10:11:31.089Z,36.85
2023-03-18T10:12:37.099Z,36.32
2023-03-18T10:13:43.611Z,35.66
2023-03-18T10:14:51.463Z,34.60
2023-03-18T10:15:56.800Z,35.80
2023-03-18T10:17:09.504Z,35.67
2023-03-18T10:18:17.050Z,35.98
2023-03-18T10:19:20.074Z,36.26
2023-03-18T10:20:29.210Z,36.10
2023-03-18T10:21:37.907Z,35.66
2023-03-18T10:22:54.182Z,35.65
2023-03-18T10:24:02.762Z,36.20
2023-03-18T10:25:12.594Z,36.63
2023-03-18T10:26:18.073Z,35.97
2023-03-18T10:27:30.130Z,36.11
2023-03-18T10:29:05.139Z,35.18
2023-03-18T10:30:39.515Z,34.87
2023-03-18T10:32:01.740Z,35.57
2023-03-18T10:33:14.911Z,35.78
2023-03-18T10:34:19.709Z,36.13
2023-03-18T10:35:28.571Z,35.89
2023-03-18T10:36:39.388Z,35.45
2023-03-18T10:37:51.806Z,35.40
2023-03-18T10:38:54.942Z,35.27
2023-03-18T10:39:59.446Z,35.35
2023-03-18T10:41:10.578Z,34.92
2023-03-18T10:43:42.520Z,35.04
2023-03-18T10:45:08.584Z,34.02
2023-03-18T10:46:15.320Z,34.93
2023-03-18T10:47:21.003Z,34.56
2023-03-18T10:48:28.617Z,34.57
2023-03-18T10:49:35.176Z,34.93
2023-03-18T10:50:40.280Z,34.17
2023-03-18T10:51:46.385Z,34.24
2023-03-18T10:52:51.642Z,34.58
2023-03-18T10:53:59.729Z,34.27
2023-03-18T10:55:02.551Z,33.93
2023-03-18T10:56:10.489Z,34.66
2023-03-18T10:57:13.153Z,34.22
2023-03-18T10:58:17.214Z,34.10
2023-03-18T10:59:21.932Z,35.29
2023-03-18T11:00:29.295Z,34.02
2023-03-18T11:01:33.239Z,33.66
2023-03-18T11:02:38.742Z,34.16
2023-03-18T11:03:45.353Z,34.96
2023-03-18T11:04:50.766Z,34.63
2023-03-18T11:05:53.453Z,34.01
2023-03-18T11:06:58.256Z,34.29
2023-03-18T11:08:02.204Z,34.24
2023-03-18T11:09:08.471Z,34.13
2023-03-18T11:10:12.862Z,34.08
2023-03-18T11:11:29.413Z,33.67
2023-03-18T11:12:32.460Z,34.46
2023-03-18T11:13:35.794Z,33.98
2023-03-18T11:14:38.599Z,34.24
2023-03-18T11:15:44.509Z,34.00
2023-03-18T11:16:50.560Z,33.93
2023-03-18T11:17:52.893Z,33.64
2023-03-18T11:18:59.388Z,33.52
2023-03-18T11:20:06.947Z,33.13
2023-03-18T11:21:13.972Z,32.75
2023-03-18T11:22:23.092Z,33.19
2023-03-18T11:23:46.324Z,33.01
2023-03-18T11:25:02.898Z,31.53
2023-03-18T11:26:08.657Z,32.47
2023-03-18T11:27:27.899Z,33.06
2023-03-18T11:28:30.752Z,32.91
2023-03-18T11:29:35.414Z,32.56
2023-03-18T11:30:45.240Z,33.14
2023-03-18T11:31:57.583Z,32.95
2023-03-18T11:33:05.282Z,32.91
2023-03-18T11:34:10.180Z,32.14
2023-03-18T11:35:20.659Z,31.72
2023-03-18T11:36:24.108Z,31.94
2023-03-18T11:37:34.482Z,31.77
2023-03-18T11:38:37.388Z,32.23
2023-03-18T11:39:41.758Z,32.50
2023-03-18T11:40:43.844Z,31.89
2023-03-18T11:41:47.116Z,31.66
2023-03-18T11:42:55.784Z,31.50
2023-03-18T11:44:00.130Z,31.53
2023-03-18T11:45:04.237Z,31.02
2023-03-18T11:46:10.091Z,32.08
2023-03-18T11:47:15.407Z,31.65
2023-03-18T11:48:23.250Z,31.88
2023-03-18T11:49:28.473Z,31.75
2023-03-18T11:50:41.632Z,32.14
2023-03-18T11:51:47.027Z,30.64
2023-03-18T11:52:52.830Z,31.22
2023-03-18T11:54:09.568Z,31.87
2023-03-18T11:55:26.418Z,32.06
2023-03-18T11:56:34.588Z,31.78
2023-03-18T11:57:43.069Z,31.43
2023-03-18T11:59:13.736Z,30.48
2023-03-18T12:00:30.319Z,29.56
2023-03-18T12:01:39.863Z,31.17
2023-03-18T12:03:10.861Z,30.86
2023-03-18T12:05:01.333Z,29.56
2023-03-18T12:06:16.472Z,29.55
2023-03-18T12:07:35.212Z,30.90
2023-03-18T12:08:48.221Z,30.80
2023-03-18T12:10:06.260Z,29.29
2023-03-18T12:11:34.536Z,30.04
2023-03-18T12:12:48.401Z,29.50
2023-03-18T12:13:58.092Z,30.83
2023-03-18T12:15:05.156Z,30.75
2023-03-18T12:16:17.246Z,31.05
2023-03-18T12:17:31.186Z,28.01
2023-03-18T12:19:12.171Z,28.02
2023-03-18T12:20:43.722Z,27.57
2023-03-18T12:22:01.810Z,29.29
2023-03-18T12:23:07.157Z,29.87
2023-03-18T12:24:21.780Z,29.68
2023-03-18T12:25:38.253Z,30.21
2023-03-18T12:26:46.819Z,30.12
2023-03-18T12:27:58.875Z,30.32
2023-03-18T12:29:29.373Z,29.96
2023-03-18T12:30:44.074Z,30.58
2023-03-18T12:31:55.071Z,30.03
2023-03-18T12:33:04.694Z,29.44
2023-03-18T12:34:16.548Z,29.58
2023-03-18T12:35:29.186Z,29.56
2023-03-18T12:36:47.170Z,29.50
2023-03-18T12:38:08.812Z,28.54
2023-03-18T12:39:45.413Z,26.50
2023-03-18T12:40:55.876Z,29.62
2023-03-18T12:42:02.397Z,29.00
2023-03-18T12:43:27.402Z,28.04
2023-03-18T12:44:54.552Z,29.01
2023-03-18T12:46:00.664Z,28.70
2023-03-18T12:47:07.853Z,29.13
2023-03-18T12:48:13.656Z,28.73
2023-03-18T12:49:25.019Z,28.65
2023-03-18T12:50:56.220Z,27.64
2023-03-18T12:54:38.424Z,28.16
2023-03-18T12:55:43.672Z,28.77
2023-03-18T12:56:46.265Z,29.19
2023-03-18T12:57:50.422Z,28.91
2023-03-18T12:58:55.171Z,28.99
2023-03-18T13:00:01.848Z,27.12
2023-03-18T13:01:09.868Z,28.08
2023-03-18T13:02:49.852Z,26.73
2023-03-18T13:03:56.795Z,27.51
2023-03-18T13:05:01.981Z,28.34
2023-03-18T13:06:07.738Z,28.78
2023-03-18T13:07:16.632Z,28.50
2023-03-18T13:08:50.468Z,27.22
2023-03-18T13:11:30.440Z,27.00
2023-03-18T13:12:37.032Z,28.18
2023-03-18T13:13:44.246Z,27.62
2023-03-18T13:14:54.601Z,27.36
2023-03-18T13:15:57.460Z,27.47
2023-03-18T13:17:01.620Z,27.51
2023-03-18T13:18:13.034Z,27.34
2023-03-18T13:19:15.891Z,28.21
2023-03-18T13:20:21.705Z,27.44
2023-03-18T13:21:30.542Z,27.93
2023-03-18T13:23:01.706Z,27.03
2023-03-18T13:24:32.167Z,27.32
2023-03-18T13:25:41.184Z,27.19
2023-03-18T13:26:58.248Z,26.35
2023-03-18T13:28:12.249Z,26.49
2023-03-18T13:29:22.096Z,27.14
2023-03-18T13:30:29.613Z,26.83
2023-03-18T13:31:42.678Z,26.68
2023-03-18T13:33:05.701Z,25.17
2023-03-18T13:34:18.993Z,27.79
2023-03-18T13:35:51.340Z,26.77
2023-03-18T13:37:10.713Z,25.25
2023-03-18T13:38:39.327Z,26.36
2023-03-18T13:40:10.401Z,26.45
2023-03-18T13:41:25.557Z,28.01
2023-03-18T13:42:30.038Z,28.65
2023-03-18T13:43:33.873Z,27.95
2023-03-18T13:44:39.503Z,27.80
2023-03-18T13:45:43.258Z,27.63
2023-03-18T13:46:55.449Z,28.04
2023-03-18T13:47:59.288Z,27.91
2023-03-18T13:49:03.808Z,27.78
2023-03-18T13:50:23.372Z,27.80
2023-03-18T13:51:53.678Z,27.33
2023-03-18T13:52:56.702Z,27.86
2023-03-18T13:54:05.015Z,27.79
2023-03-18T13:55:13.615Z,27.54
2023-03-18T13:56:29.981Z,27.86
2023-03-18T13:57:47.225Z,28.11
2023-03-18T13:58:52.536Z,27.74
2023-03-18T14:00:22.153Z,27.38
2023-03-18T14:01:32.989Z,28.64
2023-03-18T14:02:45.358Z,28.83
2023-03-18T14:03:57.581Z,28.54
2023-03-18T14:04:59.920Z,28.26
2023-03-18T14:06:24.585Z,26.24
2023-03-18T14:07:27.402Z,28.18
2023-03-18T14:08:50.456Z,27.89
2023-03-18T14:10:02.433Z,28.38
2023-03-18T14:11:50.188Z,28.11
2023-03-18T14:12:52.144Z,28.31
2023-03-18T14:13:58.548Z,28.85
2023-03-18T14:15:13.110Z,28.63
2023-03-18T14:16:20.135Z,28.75
2023-03-18T14:17:27.969Z,28.73
2023-03-18T14:18:37.003Z,28.29
2023-03-18T14:19:39.559Z,28.54
2023-03-18T14:20:43.734Z,28.02
2023-03-18T14:21:49.112Z,28.64
2023-03-18T14:22:53.080Z,28.68
2023-03-18T14:24:06.957Z,28.68
2023-03-18T14:25:20.885Z,28.76
2023-03-18T14:26:26.528Z,28.81
2023-03-18T14:27:28.577Z,28.82